Time;durP1;ratioP1;P1;durP2;ratioP2;P2;SDS_P1;SDS_P2;PMS_P1;PMS_P2;Temp;Humidity;BMP_temperature;BMP_pressure;BME280_temperature;BME280_humidity;BME280_pressure;Samples;Min_cycle;Max_cycle;Signal;HPM_P1;HPM_P2
2023/03/15 00:01:15;;;;;;;;;22.25;16.75;;;;;4.32;90.31;97199.53;4900550;28;103609;-69
2023/03/15 00:03:43;;;;;;;;;23.00;20.75;;;;;4.20;90.60;97209.13;4906492;28;103324;-69
2023/03/15 00:06:10;;;;;;;;;38.75;27.25;;;;;4.14;90.36;97223.31;4911291;28;102001;-68
2023/03/15 00:08:38;;;;;;;;;28.50;25.25;;;;;4.15;90.60;97224.94;4908502;28;102557;-69
2023/03/15 00:11:05;;;;;;;;;21.00;18.00;;;;;3.99;90.74;97249.31;4905705;28;102013;-69
2023/03/15 00:13:32;;;;;;;;;17.25;14.00;;;;;3.60;91.02;97207.00;4904359;28;108532;-68
2023/03/15 00:16:02;;;;;;;;;16.50;14.50;;;;;3.82;91.04;97266.63;4893476;28;102352;-70
2023/03/15 00:18:29;;;;;;;;;10.50;9.50;;;;;3.74;90.83;97269.44;4902225;28;101847;-66
2023/03/15 00:20:57;;;;;;;;;8.00;7.00;;;;;3.72;90.51;97285.66;4901682;28;102516;-68
2023/03/15 00:23:24;;;;;;;;;3.00;2.25;;;;;3.64;87.74;97309.00;4889939;28;104011;-69
2023/03/15 00:25:52;;;;;;;;;1.50;1.25;;;;;3.40;87.07;97327.03;4906984;28;102225;-69
2023/03/15 00:28:20;;;;;;;;;0.75;0.75;;;;;3.33;87.43;97354.69;4902102;28;103375;-69
2023/03/15 00:30:47;;;;;;;;;1.00;0.00;;;;;3.29;85.91;97364.88;4906710;28;102361;-68
2023/03/15 00:33:15;;;;;;;;;0.00;0.00;;;;;3.27;85.71;97376.78;4899075;28;104006;-68
2023/03/15 00:35:44;;;;;;;;;0.00;0.00;;;;;3.20;84.76;97390.03;4902043;28;102337;-68
2023/03/15 00:38:13;;;;;;;;;0.00;0.00;;;;;3.17;84.24;97394.94;4901336;28;101957;-69
2023/03/15 00:40:40;;;;;;;;;0.00;0.00;;;;;3.13;83.63;97400.66;4902265;28;102611;-68
2023/03/15 00:43:07;;;;;;;;;0.00;0.00;;;;;3.10;83.38;97403.69;4899465;28;103564;-67
2023/03/15 00:45:34;;;;;;;;;1.00;1.00;;;;;2.93;83.18;97415.53;4900592;28;102561;-68
2023/03/15 00:48:01;;;;;;;;;0.00;0.00;;;;;2.84;82.88;97431.81;4905306;28;102487;-67
2023/03/15 00:50:28;;;;;;;;;1.00;1.00;;;;;2.83;83.06;97424.84;4905059;28;102493;-68
2023/03/15 00:52:55;;;;;;;;;0.00;0.00;;;;;2.83;83.81;97441.69;4903728;28;103152;-68
2023/03/15 00:55:22;;;;;;;;;0.75;0.00;;;;;2.80;84.26;97457.19;4902106;28;102197;-68
2023/03/15 00:57:49;;;;;;;;;1.00;0.50;;;;;2.77;84.35;97452.22;4904292;28;102173;-68
2023/03/15 01:00:23;;;;;;;;;1.00;1.00;;;;;2.87;83.55;97464.31;4902177;28;102308;-69
2023/03/15 01:02:51;;;;;;;;;0.00;0.00;;;;;2.78;84.41;97461.91;4897904;28;103072;-68
2023/03/15 01:05:19;;;;;;;;;1.00;1.00;;;;;2.76;84.02;97463.91;4909456;28;102326;-68
2023/03/15 01:07:56;;;;;;;;;2.00;1.00;;;;;2.75;84.10;97470.28;4883412;28;101987;-67
2023/03/15 01:10:31;;;;;;;;;2.00;1.00;;;;;2.78;83.21;97481.41;4903923;28;102572;-67
2023/03/15 01:13:16;;;;;;;;;4.50;1.00;;;;;2.76;82.96;97480.75;4897208;28;108586;-68
2023/03/15 01:16:04;;;;;;;;;1.00;1.00;;;;;2.76;83.39;97503.94;4907584;28;102680;-68
2023/03/15 01:18:47;;;;;;;;;1.50;1.50;;;;;2.78;83.87;97509.94;4904042;28;104702;-68
2023/03/15 01:21:32;;;;;;;;;1.00;1.00;;;;;2.83;83.60;97519.09;4898810;28;102262;-67
2023/03/15 01:24:06;;;;;;;;;2.25;2.00;;;;;2.76;84.80;97517.28;4907905;28;109979;-67
2023/03/15 01:26:33;;;;;;;;;2.00;1.00;;;;;2.77;84.06;97524.28;4906637;28;102390;-68
2023/03/15 01:29:00;;;;;;;;;2.25;2.00;;;;;2.79;84.08;97514.28;4897884;28;102245;-68
2023/03/15 01:31:29;;;;;;;;;2.00;2.00;;;;;2.69;85.04;97515.34;4897877;28;102087;-67
2023/03/15 01:33:58;;;;;;;;;2.50;2.50;;;;;2.79;85.23;97508.94;4903248;28;103965;-68
2023/03/15 01:36:25;;;;;;;;;4.50;2.50;;;;;2.81;85.62;97520.25;4902074;28;102536;-68
2023/03/15 01:38:53;;;;;;;;;2.75;2.00;;;;;2.68;85.41;97524.38;4903448;28;102273;-68
2023/03/15 01:41:23;;;;;;;;;2.50;2.25;;;;;2.57;85.13;97532.75;4908233;28;103736;-68
2023/03/15 01:43:50;;;;;;;;;3.00;2.00;;;;;2.52;84.25;97535.13;4905071;28;104171;-68
2023/03/15 01:46:33;;;;;;;;;3.25;2.00;;;;;2.44;83.94;97543.19;4908521;28;102266;-68
2023/03/15 01:49:22;;;;;;;;;2.00;2.00;;;;;2.51;83.63;97548.66;4911536;28;102375;-68
2023/03/15 01:51:58;;;;;;;;;3.00;3.00;;;;;2.50;83.88;97539.81;4908525;28;102108;-68
2023/03/15 01:54:33;;;;;;;;;2.00;2.00;;;;;2.48;84.31;97539.16;4907220;28;103444;-68
2023/03/15 01:57:09;;;;;;;;;4.25;2.25;;;;;2.53;84.47;97543.97;4903138;28;102362;-68
2023/03/15 01:59:50;;;;;;;;;2.50;2.00;;;;;2.48;84.61;97539.16;4902836;28;102039;-67
2023/03/15 02:02:21;;;;;;;;;4.50;3.50;;;;;2.44;83.87;97545.84;4899888;28;102372;-69
2023/03/15 02:05:03;;;;;;;;;6.00;5.00;;;;;2.39;85.27;97544.72;4896637;28;103966;-69
2023/03/15 02:07:33;;;;;;;;;0.00;0.00;;;;;2.40;84.54;97551.72;4894660;28;102043;-68
2023/03/15 02:10:15;;;;;;;;;3.00;3.00;;;;;2.40;85.04;97557.88;4894974;28;102233;-68
2023/03/15 02:12:59;;;;;;;;;5.25;5.25;;;;;2.45;85.36;97566.19;4898641;28;102470;-68
2023/03/15 02:15:59;;;;;;;;;;;;;;;;;;;;;
2023/03/15 02:18:49;;;;;;;;;1.25;1.25;;;;;2.48;85.21;97576.50;4906549;28;103125;-69
2023/03/15 02:21:55;;;;;;;;;3.00;3.00;;;;;2.37;85.82;97582.25;4907793;28;102028;-69
2023/03/15 02:24:43;;;;;;;;;5.00;5.00;;;;;2.24;85.88;97588.16;4928092;28;102192;-69
2023/03/15 02:27:33;;;;;;;;;6.25;5.00;;;;;2.17;85.97;97573.00;4900727;28;108177;-68
2023/03/15 02:30:03;;;;;;;;;6.00;5.00;;;;;2.17;85.73;97575.66;4903640;28;102079;-67
2023/03/15 02:32:30;;;;;;;;;4.00;4.00;;;;;2.23;86.09;97583.00;4904437;28;102248;-68
2023/03/15 02:34:57;;;;;;;;;4.75;4.50;;;;;2.23;85.12;97593.66;4904654;28;102405;-69
2023/03/15 02:37:25;;;;;;;;;3.00;2.50;;;;;2.17;84.61;97589.84;4903547;28;103988;-68
2023/03/15 02:39:52;;;;;;;;;3.75;2.75;;;;;2.13;83.47;97587.69;4903705;28;102264;-67
2023/03/15 02:42:19;;;;;;;;;0.75;0.50;;;;;2.18;82.59;97604.00;4903221;28;102074;-67
2023/03/15 02:44:48;;;;;;;;;5.00;4.75;;;;;2.17;83.06;97600.50;4888538;28;105004;-68
2023/03/15 02:47:19;;;;;;;;;3.50;2.00;;;;;2.18;83.20;97604.84;4897558;28;107049;-67
2023/03/15 02:49:50;;;;;;;;;2.75;2.75;;;;;2.21;82.46;97601.81;4902858;28;105253;-67
2023/03/15 02:52:17;;;;;;;;;2.25;2.00;;;;;2.15;83.00;97610.53;4904624;28;101883;-67
2023/03/15 02:54:44;;;;;;;;;2.75;2.75;;;;;2.15;83.60;97604.34;4903425;28;102356;-66
2023/03/15 02:57:13;;;;;;;;;3.00;2.50;;;;;2.18;83.34;97607.50;4894385;28;105113;-68
2023/03/15 02:59:43;;;;;;;;;2.75;2.00;;;;;2.14;82.68;97600.03;4905354;28;102445;-68
2023/03/15 03:02:10;;;;;;;;;3.00;2.00;;;;;2.14;82.11;97603.53;4906572;28;102448;-67
2023/03/15 03:04:38;;;;;;;;;3.25;2.25;;;;;2.13;82.26;97609.84;4894631;28;102405;-68
2023/03/15 03:07:05;;;;;;;;;3.50;3.25;;;;;2.12;81.84;97602.84;4905453;28;104005;-67
2023/03/15 03:09:32;;;;;;;;;3.00;2.00;;;;;2.08;82.27;97606.88;4902462;28;102069;-67
2023/03/15 03:11:59;;;;;;;;;6.00;2.00;;;;;2.12;82.42;97612.69;4905869;28;103298;-67
2023/03/15 03:14:26;;;;;;;;;3.00;3.00;;;;;2.12;82.86;97612.69;4905740;28;102993;-68
2023/03/15 03:16:53;;;;;;;;;6.75;5.00;;;;;2.13;82.03;97619.69;4909585;28;104006;-68
2023/03/15 03:19:24;;;;;;;;;6.00;3.25;;;;;2.18;83.09;97622.66;4904029;28;102422;-69
2023/03/15 03:21:52;;;;;;;;;4.25;2.75;;;;;2.20;83.30;97634.84;4909913;28;102541;-69
2023/03/15 03:24:20;;;;;;;;;3.00;2.00;;;;;2.30;82.37;97636.47;4903347;28;102032;-68
2023/03/15 03:26:47;;;;;;;;;2.25;2.25;;;;;2.18;82.08;97628.00;4908491;28;103505;-67
2023/03/15 03:29:15;;;;;;;;;8.50;3.00;;;;;2.19;82.17;97640.34;4897359;28;102246;-68
2023/03/15 03:31:43;;;;;;;;;3.50;3.00;;;;;2.25;82.35;97655.66;4905625;28;102364;-68
2023/03/15 03:34:13;;;;;;;;;5.25;3.00;;;;;2.17;81.53;97661.00;4913277;28;102299;-68
2023/03/15 03:36:43;;;;;;;;;3.75;3.25;;;;;2.16;82.43;97667.34;4900467;28;104032;-68
2023/03/15 03:39:10;;;;;;;;;6.00;5.50;;;;;2.18;82.76;97681.34;4902459;28;102506;-68
2023/03/15 03:41:37;;;;;;;;;4.00;2.00;;;;;2.17;82.07;97682.34;4907644;28;101950;-68
2023/03/15 03:44:05;;;;;;;;;4.00;2.75;;;;;2.13;83.58;97683.69;4907570;28;102003;-68
2023/03/15 03:46:32;;;;;;;;;5.50;3.00;;;;;2.12;82.80;97679.34;4891134;28;108960;-68
2023/03/15 03:48:59;;;;;;;;;6.75;5.50;;;;;2.06;83.19;97685.38;4889716;28;103434;-68
2023/03/15 03:51:26;;;;;;;;;4.25;2.25;;;;;2.04;82.82;97687.38;4903649;28;102367;-69
2023/03/15 03:53:53;;;;;;;;;4.25;3.25;;;;;2.06;82.38;97680.03;4902901;28;102298;-69
2023/03/15 03:56:20;;;;;;;;;5.00;3.00;;;;;2.10;81.82;97681.38;4905892;28;103083;-68
2023/03/15 03:58:47;;;;;;;;;5.75;3.00;;;;;2.08;82.45;97688.69;4902530;28;105413;-69
2023/03/15 04:01:14;;;;;;;;;5.00;4.75;;;;;2.05;82.16;97691.69;4897589;28;102429;-69
2023/03/15 04:03:41;;;;;;;;;6.00;3.00;;;;;2.09;81.98;97690.34;4909501;28;102678;-68
2023/03/15 04:06:08;;;;;;;;;3.25;3.25;;;;;2.05;81.95;97695.19;4908750;28;104136;-68
2023/03/15 04:08:35;;;;;;;;;6.25;3.25;;;;;2.03;83.68;97701.69;4896434;28;102361;-68
2023/03/15 04:11:02;;;;;;;;;4.00;3.00;;;;;2.14;82.40;97706.69;4903088;28;104780;-66
2023/03/15 04:13:30;;;;;;;;;5.00;3.25;;;;;2.08;81.52;97707.34;4893595;28;102366;-68
2023/03/15 04:15:57;;;;;;;;;5.00;3.00;;;;;2.11;82.25;97720.38;4900175;28;104018;-67
2023/03/15 04:18:24;;;;;;;;;6.50;5.00;;;;;2.05;82.29;97721.03;4908134;28;103582;-68
2023/03/15 04:20:53;;;;;;;;;2.75;2.00;;;;;1.88;81.38;97685.56;4899210;28;103014;-68
2023/03/15 04:23:23;;;;;;;;;7.50;5.00;;;;;2.07;81.87;97724.38;4899309;28;102567;-67
2023/03/15 04:25:53;;;;;;;;;8.25;5.00;;;;;2.04;82.21;97717.53;4905366;28;103983;-67
2023/03/15 04:28:21;;;;;;;;;5.25;5.00;;;;;2.13;81.68;97721.84;4904756;28;102180;-68
2023/03/15 04:30:50;;;;;;;;;6.50;5.75;;;;;2.05;81.03;97719.19;4906037;28;102091;-68
2023/03/15 04:33:17;;;;;;;;;5.00;3.00;;;;;1.79;80.22;97682.09;4904583;28;102444;-67
2023/03/15 04:35:44;;;;;;;;;7.25;5.00;;;;;2.07;79.94;97721.72;4901329;28;102976;-68
2023/03/15 04:38:11;;;;;;;;;2.50;2.50;;;;;2.02;80.35;97724.03;4902030;28;102313;-70
2023/03/15 04:40:38;;;;;;;;;8.50;5.50;;;;;2.02;80.28;97730.22;4897074;28;102383;-69
2023/03/15 04:43:05;;;;;;;;;3.00;3.00;;;;;2.04;80.39;97740.69;4912701;28;102167;-70
2023/03/15 04:45:32;;;;;;;;;8.00;5.75;;;;;1.95;79.93;97742.53;4899482;28;106855;-69
2023/03/15 04:48:00;;;;;;;;;6.75;6.00;;;;;1.94;80.57;97748.03;4904306;28;102415;-70
2023/03/15 04:50:29;;;;;;;;;7.50;6.00;;;;;1.93;80.75;97762.38;4899075;28;102395;-68
2023/03/15 04:52:59;;;;;;;;;6.25;5.00;;;;;1.96;80.36;97751.38;4906725;28;102297;-69
2023/03/15 04:55:26;;;;;;;;;5.25;5.25;;;;;1.90;80.04;97739.53;4898009;28;103057;-70
2023/03/15 04:57:54;;;;;;;;;6.00;5.00;;;;;1.88;80.75;97746.03;4907893;28;102085;-70
2023/03/15 05:00:21;;;;;;;;;7.50;5.75;;;;;1.83;80.96;97740.38;4898938;28;102173;-70
2023/03/15 05:02:53;;;;;;;;;5.50;4.00;;;;;1.79;81.30;97738.06;4896076;28;102425;-68
2023/03/15 05:05:25;;;;;;;;;9.00;5.00;;;;;1.79;81.35;97746.06;4903284;28;103933;-70
2023/03/15 05:07:52;;;;;;;;;6.00;6.00;;;;;1.71;81.71;97738.03;4888271;28;102719;-69
2023/03/15 05:10:20;;;;;;;;;8.25;7.75;;;;;1.72;81.32;97755.69;4905301;28;103468;-71
2023/03/15 05:12:48;;;;;;;;;10.50;7.25;;;;;1.68;81.71;97767.69;4893583;28;104428;-68
2023/03/15 05:15:15;;;;;;;;;9.00;6.00;;;;;1.67;81.63;97768.69;4904476;28;103982;-70
2023/03/15 05:17:45;;;;;;;;;6.25;5.00;;;;;1.64;82.11;97770.84;4906779;28;102214;-69
2023/03/15 05:20:13;;;;;;;;;6.50;6.00;;;;;1.61;81.77;97777.34;4911772;28;102368;-68
2023/03/15 05:22:40;;;;;;;;;5.75;5.25;;;;;1.63;81.76;97777.16;4913457;28;102487;-67
2023/03/15 05:25:09;;;;;;;;;6.00;6.00;;;;;1.67;82.36;97775.84;4890986;28;103532;-69
2023/03/15 05:27:37;;;;;;;;;10.25;5.25;;;;;1.65;81.26;97784.00;4900281;28;102074;-68
2023/03/15 05:30:06;;;;;;;;;10.50;7.25;;;;;1.63;82.19;97778.00;4908431;28;102521;-67
2023/03/15 05:32:33;;;;;;;;;7.25;6.00;;;;;1.66;81.59;97777.69;4902691;28;102144;-68
2023/03/15 05:35:01;;;;;;;;;8.50;5.00;;;;;1.65;81.06;97770.69;4896996;28;103435;-69
2023/03/15 05:37:28;;;;;;;;;8.50;6.00;;;;;1.60;81.71;97773.03;4907184;28;102404;-68
2023/03/15 05:39:55;;;;;;;;;6.00;6.00;;;;;1.60;81.66;97773.03;4892019;28;102208;-69
2023/03/15 05:42:26;;;;;;;;;7.00;6.00;;;;;1.66;82.10;97772.38;4910872;28;102371;-67
2023/03/15 05:44:54;;;;;;;;;6.00;5.00;;;;;1.65;81.75;97777.84;4899780;28;104454;-68
2023/03/15 05:47:22;;;;;;;;;5.75;3.25;;;;;1.67;81.33;97784.66;4905863;28;102315;-70
2023/03/15 05:49:49;;;;;;;;;8.50;5.25;;;;;1.77;81.07;97790.69;4901752;28;102185;-68
2023/03/15 05:52:16;;;;;;;;;11.50;6.00;;;;;1.68;81.24;97799.66;4900943;28;102277;-68
2023/03/15 05:54:43;;;;;;;;;7.50;6.00;;;;;1.72;80.84;97795.66;4905601;28;103166;-69
2023/03/15 05:57:10;;;;;;;;;6.00;4.00;;;;;1.72;80.76;97802.81;4908839;28;103231;-69
2023/03/15 05:59:37;;;;;;;;;6.00;6.00;;;;;1.71;80.09;97807.31;4912684;28;103088;-69
2023/03/15 06:02:04;;;;;;;;;6.00;5.25;;;;;1.72;80.56;97819.66;4908406;28;102408;-69
2023/03/15 06:04:31;;;;;;;;;7.00;5.50;;;;;1.69;80.79;97822.66;4906463;28;104175;-69
2023/03/15 06:06:58;;;;;;;;;7.50;5.50;;;;;1.66;79.68;97830.97;4896457;28;103258;-69
2023/03/15 06:09:25;;;;;;;;;7.75;5.25;;;;;1.71;80.24;97833.97;4896273;28;102383;-69
2023/03/15 06:11:52;;;;;;;;;8.25;5.50;;;;;1.76;79.79;97842.31;4905870;28;102072;-70
2023/03/15 06:14:19;;;;;;;;;10.00;6.00;;;;;1.76;79.79;97839.63;4905212;28;103994;-70
2023/03/15 06:16:46;;;;;;;;;8.75;7.00;;;;;1.75;79.93;97846.00;4902274;28;102406;-70
2023/03/15 06:19:13;;;;;;;;;12.75;8.75;;;;;1.79;79.09;97851.81;4897564;28;102039;-69
2023/03/15 06:21:41;;;;;;;;;9.00;7.00;;;;;1.82;80.04;97864.81;4898244;28;102554;-69
2023/03/15 06:24:08;;;;;;;;;6.00;5.75;;;;;1.82;79.56;97867.47;4905170;28;103772;-69
2023/03/15 06:26:35;;;;;;;;;6.25;5.50;;;;;1.85;79.50;97869.00;4908085;28;102401;-69
2023/03/15 06:29:02;;;;;;;;;7.00;5.50;;;;;1.79;79.64;97883.81;4903557;28;102309;-69
2023/03/15 06:31:29;;;;;;;;;9.25;7.00;;;;;1.83;79.89;97886.97;4900686;28;102384;-70
2023/03/15 06:33:56;;;;;;;;;8.50;6.75;;;;;1.82;78.50;97887.94;4874372;28;104018;-68
2023/03/15 06:36:23;;;;;;;;;3.50;2.75;;;;;1.82;78.20;97893.28;4897819;28;102165;-69
2023/03/15 06:38:53;;;;;;;;;7.75;6.00;;;;;1.79;78.74;97897.97;4901137;28;103044;-68
2023/03/15 06:41:20;;;;;;;;;6.50;5.25;;;;;1.83;78.33;97908.28;4906503;28;103107;-68
2023/03/15 06:43:47;;;;;;;;;7.00;6.00;;;;;1.93;77.57;97922.31;4908375;28;104266;-71
2023/03/15 06:50:01;;;;;;;;;8.00;6.00;;;;;1.79;77.89;97897.97;4895631;28;103154;-70
2023/03/15 06:52:28;;;;;;;;;6.00;6.00;;;;;1.96;77.45;97916.63;4902215;28;102103;-69
2023/03/15 06:54:56;;;;;;;;;6.00;5.00;;;;;2.06;78.11;97933.31;4894107;28;104193;-70
2023/03/15 06:57:23;;;;;;;;;5.75;4.25;;;;;2.11;77.79;97933.69;4905272;28;102366;-70
2023/03/15 06:59:52;;;;;;;;;7.50;5.75;;;;;2.30;76.94;97946.69;4905533;28;102413;-70
2023/03/15 07:02:20;;;;;;;;;8.50;7.00;;;;;2.22;78.14;97938.66;4908354;28;102301;-71
2023/03/15 07:04:47;;;;;;;;;11.00;6.00;;;;;2.32;77.12;97944.69;4904582;28;104010;-70
2023/03/15 07:07:14;;;;;;;;;6.00;6.00;;;;;2.59;77.72;97952.38;4898555;28;102252;-70
2023/03/15 07:09:41;;;;;;;;;10.00;6.00;;;;;2.81;76.68;97945.53;4875588;28;102190;-70
2023/03/15 07:12:09;;;;;;;;;10.25;9.50;;;;;2.69;74.61;97960.22;4904143;28;102148;-70
2023/03/15 07:14:36;;;;;;;;;10.00;8.25;;;;;2.61;nan;97955.69;4907148;28;103989;-70
2023/03/15 07:17:03;;;;;;;;;6.50;6.25;;;;;2.75;74.96;97956.06;4908574;28;101927;-70
2023/03/15 07:19:30;;;;;;;;;8.00;6.25;;;;;2.55;75.94;97959.06;4900795;28;102262;-69
2023/03/15 07:21:57;;;;;;;;;6.50;5.75;;;;;2.47;75.95;97959.06;4908872;28;102515;-70
2023/03/15 07:24:24;;;;;;;;;5.50;3.50;;;;;2.53;76.13;97960.19;4906878;28;103823;-70
2023/03/15 07:26:55;;;;;;;;;5.25;3.00;;;;;2.55;75.06;97963.56;4908450;28;102508;-70
2023/03/15 07:29:23;;;;;;;;;6.25;5.50;;;;;2.42;75.38;97955.22;4898068;28;102177;-69
2023/03/15 07:31:50;;;;;;;;;5.00;3.00;;;;;2.21;76.07;97964.50;4904198;28;102632;-69
2023/03/15 07:34:17;;;;;;;;;4.50;4.00;;;;;2.24;76.02;97966.88;4900922;28;103800;-69
2023/03/15 07:36:44;;;;;;;;;5.25;3.00;;;;;2.37;75.99;97966.38;4900639;28;101972;-69
2023/03/15 07:39:11;;;;;;;;;5.75;4.75;;;;;2.37;75.43;97977.03;4904295;28;102303;-69
2023/03/15 07:41:38;;;;;;;;;5.75;4.50;;;;;2.39;75.85;97976.84;4904971;28;102203;-70
2023/03/15 07:44:05;;;;;;;;;4.50;3.00;;;;;2.49;75.50;97965.03;4910599;28;103483;-69
2023/03/15 07:46:32;;;;;;;;;6.25;3.00;;;;;2.50;74.29;97977.38;4904612;28;102133;-69
2023/03/15 07:48:59;;;;;;;;;2.75;2.00;;;;;2.59;74.53;97984.41;4905965;28;102055;-71
2023/03/15 07:51:27;;;;;;;;;4.50;3.00;;;;;2.51;73.54;97981.72;4904448;28;102370;-70
2023/03/15 07:53:54;;;;;;;;;9.50;4.00;;;;;2.43;74.68;97983.56;4900816;28;103558;-70
2023/03/15 07:56:21;;;;;;;;;6.00;5.00;;;;;2.37;74.65;97985.06;4903725;28;102405;-70
2023/03/15 07:58:48;;;;;;;;;6.75;6.00;;;;;2.37;75.45;97992.22;4907454;28;102354;-70
2023/03/15 08:01:15;;;;;;;;;10.00;5.00;;;;;2.36;75.16;98004.72;4903011;28;103697;-69
2023/03/15 08:03:42;;;;;;;;;5.25;2.50;;;;;2.48;74.95;98000.72;4908218;28;103680;-70
2023/03/15 08:06:09;;;;;;;;;5.00;4.50;;;;;2.62;75.03;98000.06;4911819;28;102533;-69
2023/03/15 08:08:36;;;;;;;;;5.25;5.00;;;;;2.74;73.74;98003.25;4907217;28;102490;-68
2023/03/15 08:11:05;;;;;;;;;8.00;5.75;;;;;2.80;72.77;98007.91;4888603;28;102474;-71
2023/03/15 08:13:32;;;;;;;;;8.00;6.00;;;;;3.07;73.59;98009.41;4905041;28;104041;-69
2023/03/15 08:15:59;;;;;;;;;6.50;5.50;;;;;2.93;71.16;98015.41;4908634;28;102068;-69
2023/03/15 08:18:30;;;;;;;;;4.00;3.00;;;;;2.93;71.99;98023.44;4905146;28;102289;-69
2023/03/15 08:20:58;;;;;;;;;3.50;3.50;;;;;2.77;73.48;98020.78;4910836;28;102118;-69
2023/03/15 08:23:25;;;;;;;;;5.25;4.50;;;;;2.83;71.92;98030.78;4901884;28;104010;-69
2023/03/15 08:25:52;;;;;;;;;5.50;3.00;;;;;2.64;71.90;98024.78;4907952;28;102480;-68
2023/03/15 08:28:19;;;;;;;;;3.00;3.00;;;;;2.91;72.25;98036.97;4914730;28;102019;-68
2023/03/15 08:30:46;;;;;;;;;5.00;4.50;;;;;2.91;70.00;98041.47;4913596;28;102274;-69
2023/03/15 08:33:13;;;;;;;;;3.00;2.25;;;;;2.94;71.94;98051.81;4905360;28;104033;-68
2023/03/15 08:35:40;;;;;;;;;3.00;2.00;;;;;2.86;70.80;98049.13;4908993;28;102513;-69
2023/03/15 08:38:08;;;;;;;;;3.00;2.00;;;;;3.09;72.46;98036.78;4905178;28;102260;-70
2023/03/15 08:40:35;;;;;;;;;6.00;3.50;;;;;2.94;71.06;98046.47;4900677;28;102181;-68
2023/03/15 08:43:05;;;;;;;;;6.00;5.25;;;;;3.15;70.47;98042.28;4901464;28;108775;-69
2023/03/15 08:45:32;;;;;;;;;2.50;1.50;;;;;3.23;70.33;98045.97;4903603;28;102458;-71
2023/03/15 08:48:19;;;;;;;;;3.00;3.00;;;;;3.16;70.77;98043.13;4906403;28;102223;-70
2023/03/15 08:50:46;;;;;;;;;6.00;5.00;;;;;3.24;70.47;98048.47;4905942;28;102015;-69
2023/03/15 08:53:13;;;;;;;;;3.00;3.00;;;;;3.10;70.54;98047.31;4907294;28;104022;-69
2023/03/15 08:55:40;;;;;;;;;6.00;3.25;;;;;3.23;68.91;98051.31;4904837;28;102455;-70
2023/03/15 08:58:07;;;;;;;;;5.00;4.50;;;;;3.24;69.60;98058.31;4918277;28;102274;-71
2023/03/15 09:00:34;;;;;;;;;4.00;2.75;;;;;3.10;68.30;98057.16;4905487;28;102636;-70
2023/03/15 09:03:02;;;;;;;;;5.00;4.50;;;;;3.08;69.50;98067.16;4901466;28;104712;-70
2023/03/15 09:05:29;;;;;;;;;2.75;2.00;;;;;3.00;68.35;98069.84;4906288;28;102084;-70
2023/03/15 09:07:57;;;;;;;;;3.00;1.75;;;;;3.19;68.00;98074.03;4906076;28;102516;-70
2023/03/15 09:10:24;;;;;;;;;3.00;2.00;;;;;3.41;68.62;98071.50;4908587;28;101941;-69
2023/03/15 09:12:52;;;;;;;;;2.25;2.00;;;;;3.39;66.98;98076.16;4908521;28;104499;-69
2023/03/15 09:15:20;;;;;;;;;5.00;2.00;;;;;3.40;68.13;98080.50;4906955;28;102253;-69
2023/03/15 09:17:49;;;;;;;;;1.00;1.00;;;;;3.45;67.64;98088.03;4900358;28;102043;-70
2023/03/15 09:20:17;;;;;;;;;1.25;1.00;;;;;3.43;68.52;98085.50;4902001;28;103022;-70
2023/03/15 09:22:53;;;;;;;;;1.00;1.00;;;;;3.52;66.08;98084.50;4896908;28;104189;-70
2023/03/15 09:25:22;;;;;;;;;3.00;2.75;;;;;3.87;66.42;98082.44;4913795;28;102176;-70
2023/03/15 09:27:49;;;;;;;;;5.75;3.00;;;;;3.63;64.33;98077.13;4900936;28;102548;-69
2023/03/15 09:30:16;;;;;;;;;4.00;2.75;;;;;3.76;65.87;98075.59;4908018;28;102065;-69
2023/03/15 09:32:44;;;;;;;;;3.75;2.00;;;;;3.68;65.48;98085.47;4907521;28;103978;-70
2023/03/15 09:35:14;;;;;;;;;2.00;1.75;;;;;3.53;63.06;98054.09;4908884;28;102565;-70
2023/03/15 09:37:41;;;;;;;;;2.00;1.00;;;;;3.57;65.29;98082.16;4909699;28;102150;-70
2023/03/15 09:40:18;;;;;;;;;3.00;2.00;;;;;3.62;63.24;98088.81;4910146;28;102333;-69
2023/03/15 09:42:47;;;;;;;;;2.00;2.00;;;;;3.31;63.46;98086.88;4903677;28;108621;-68
2023/03/15 09:45:44;;;;;;;;;4.25;2.00;;;;;3.32;64.28;98052.97;4913976;28;102286;-70
2023/03/15 09:48:25;;;;;;;;;2.00;2.00;;;;;3.75;65.13;98070.41;4899437;28;102430;-70
2023/03/15 09:51:27;;;;;;;;;4.75;3.50;;;;;3.64;63.59;98076.97;4909441;28;102020;-69
2023/03/15 09:53:54;;;;;;;;;3.00;3.00;;;;;3.68;63.33;98078.31;4906985;28;108572;-70
2023/03/15 09:56:26;;;;;;;;;1.00;0.00;;;;;3.67;61.88;98086.47;4909354;28;102542;-69
2023/03/15 09:58:58;;;;;;;;;2.25;2.00;;;;;3.43;63.21;98087.34;4904051;28;102300;-69
2023/03/15 10:01:37;;;;;;;;;1.50;1.50;;;;;3.56;62.55;98085.81;4906378;28;102258;-69
2023/03/15 10:04:11;;;;;;;;;2.25;2.00;;;;;3.42;63.51;98045.63;4898267;28;109847;-69
2023/03/15 10:06:45;;;;;;;;;4.00;2.00;;;;;3.67;64.11;98089.16;4903525;28;101999;-71
2023/03/15 10:09:20;;;;;;;;;5.75;3.00;;;;;3.88;64.16;98084.06;4895646;28;102074;-70
2023/03/15 10:12:05;;;;;;;;;5.00;2.75;;;;;4.06;62.80;98100.75;4903417;28;102296;-70
2023/03/15 10:14:59;;;;;;;;;2.00;2.00;;;;;3.84;62.87;98104.97;4898823;28;104232;-69
2023/03/15 10:17:57;;;;;;;;;2.00;2.00;;;;;3.76;63.12;98107.69;4898887;28;103165;-70
2023/03/15 10:20:35;;;;;;;;;2.75;2.75;;;;;3.83;61.62;98108.66;4895611;28;102225;-69
2023/03/15 10:23:27;;;;;;;;;4.50;4.50;;;;;3.71;60.95;98104.69;4915101;28;102033;-71
2023/03/15 10:25:55;;;;;;;;;2.00;2.00;;;;;3.91;61.27;98105.16;4898408;28;108601;-70
2023/03/15 10:28:28;;;;;;;;;4.50;2.75;;;;;3.99;60.33;98113.16;4900079;28;102482;-70
2023/03/15 10:31:11;;;;;;;;;3.75;2.00;;;;;3.74;61.99;98109.69;4901652;28;102399;-70
2023/03/15 10:33:56;;;;;;;;;1.75;1.25;;;;;3.70;60.26;98086.13;4903428;28;101967;-70
2023/03/15 10:36:24;;;;;;;;;3.00;2.00;;;;;3.92;61.15;98106.78;4903050;28;104055;-69
2023/03/15 10:38:51;;;;;;;;;3.00;2.00;;;;;3.54;61.22;98087.84;4901777;28;102347;-70
2023/03/15 10:41:43;;;;;;;;;5.00;2.00;;;;;3.75;60.57;98110.50;4901663;28;102525;-70
2023/03/15 10:44:20;;;;;;;;;1.00;1.00;;;;;3.97;60.11;98115.97;4897351;28;102259;-69
2023/03/15 10:47:08;;;;;;;;;1.75;1.75;;;;;4.21;60.11;98115.06;4896373;28;103925;-72
2023/03/15 10:49:55;;;;;;;;;2.50;2.00;;;;;4.22;60.03;98114.06;4903085;28;102656;-70
2023/03/15 10:52:33;;;;;;;;;2.00;1.50;;;;;3.95;59.33;98106.47;4895275;28;102290;-70
2023/03/15 10:55:06;;;;;;;;;1.00;1.00;;;;;4.22;61.02;98111.41;4901818;28;102235;-70
2023/03/15 10:57:38;;;;;;;;;2.50;2.00;;;;;4.08;59.77;98120.13;4893404;28;103961;-70
2023/03/15 11:00:34;;;;;;;;;3.25;2.25;;;;;4.26;60.69;98114.56;4896348;28;102863;-70
2023/03/15 11:03:14;;;;;;;;;4.00;2.75;;;;;4.30;59.72;98111.38;4906820;28;101985;-69
2023/03/15 11:05:44;;;;;;;;;3.75;2.25;;;;;4.36;59.40;98120.53;4905013;28;102491;-69
2023/03/15 11:08:43;;;;;;;;;3.50;2.00;;;;;4.57;59.33;98120.78;4900811;28;104025;-69
2023/03/15 11:11:10;;;;;;;;;2.00;1.00;;;;;4.25;58.43;98096.81;4870503;28;102062;-69
2023/03/15 11:13:39;;;;;;;;;2.25;2.00;;;;;4.35;58.64;98127.75;4910316;28;102563;-70
2023/03/15 11:16:12;;;;;;;;;1.00;1.00;;;;;4.42;59.23;98125.19;4903186;28;102485;-70
2023/03/15 11:18:53;;;;;;;;;0.00;0.00;;;;;4.34;58.52;98123.38;4905819;28;108884;-70
2023/03/15 11:21:25;;;;;;;;;2.00;1.00;;;;;4.32;59.63;98129.94;4905760;28;102353;-69
2023/03/15 11:23:54;;;;;;;;;2.00;1.00;;;;;4.46;56.59;98119.31;4899966;28;101970;-69
2023/03/15 11:26:25;;;;;;;;;1.00;1.00;;;;;4.36;57.41;98126.75;4902107;28;102759;-69
2023/03/15 11:29:06;;;;;;;;;1.50;0.00;;;;;4.52;56.83;98119.63;4905171;28;103700;-70
2023/03/15 11:31:34;;;;;;;;;3.00;1.00;;;;;4.35;55.28;98125.06;4906078;28;102502;-70
2023/03/15 11:34:20;;;;;;;;;2.25;2.00;;;;;4.15;55.47;98080.13;4906252;28;101957;-69
2023/03/15 11:36:53;;;;;;;;;2.25;1.00;;;;;4.54;55.75;98113.09;4898129;28;102027;-70
2023/03/15 11:39:43;;;;;;;;;3.00;2.00;;;;;4.69;55.75;98118.53;4898730;28;103749;-69
2023/03/15 11:42:19;;;;;;;;;1.00;1.00;;;;;4.48;56.76;98114.63;4902620;28;102043;-70
2023/03/15 11:44:51;;;;;;;;;1.00;1.00;;;;;4.59;55.66;98118.78;4901745;28;101998;-70
2023/03/15 11:47:45;;;;;;;;;3.50;2.00;;;;;4.46;56.42;98118.47;4901158;28;103263;-70
2023/03/15 11:50:14;;;;;;;;;1.00;1.00;;;;;4.59;55.90;98123.28;4901456;28;108774;-70
2023/03/15 11:52:50;;;;;;;;;4.25;2.75;;;;;4.52;56.09;98120.47;4904574;28;102264;-69
2023/03/15 11:55:25;;;;;;;;;2.00;2.00;;;;;4.72;55.12;98112.84;4898188;28;102256;-69